TimeMDT,TemperatureF,Dew PointF,Humidity,Sea Level PressureIn,VisibilityMPH,Wind Direction,Wind SpeedMPH,Gust SpeedMPH,PrecipitationIn,Events,Conditions,WindDirDegrees,DateUTC
12:10 AM,33.8,32.0,93,30.21,10.0,South,15.0,-,N/A,,Overcast,190,2012-10-10 06:10:00
12:31 AM,33.8,32.0,93,30.20,10.0,South,15.0,23.0,N/A,,Overcast,190,2012-10-10 06:31:00
12:51 AM,33.8,32.0,93,30.18,10.0,South,16.1,-,N/A,,Overcast,180,2012-10-10 06:51:00
1:11 AM,33.8,32.0,93,30.18,10.0,SSW,17.3,25.3,N/A,,Mostly Cloudy,200,2012-10-10 07:11:00
1:31 AM,32.0,32.0,100,30.18,10.0,South,16.1,23.0,N/A,,Scattered Clouds,190,2012-10-10 07:31:00
1:51 AM,32.0,32.0,100,30.17,10.0,SSW,21.9,27.6,N/A,,Scattered Clouds,200,2012-10-10 07:51:00
2:08 AM,32.0,32.0,100,30.17,10.0,SSW,17.3,-,N/A,,Clear,200,2012-10-10 08:08:00
2:30 AM,32.0,32.0,100,30.16,10.0,SSW,20.7,-,N/A,,Clear,200,2012-10-10 08:30:00
2:48 AM,32.0,32.0,100,30.16,10.0,South,21.9,-,N/A,,Clear,190,2012-10-10 08:48:00
3:11 AM,32.0,32.0,100,30.16,10.0,SSW,20.7,28.8,N/A,,Clear,200,2012-10-10 09:11:00
3:31 AM,32.0,32.0,100,30.15,10.0,SSW,18.4,-,N/A,,Clear,200,2012-10-10 09:31:00
3:51 AM,32.0,32.0,100,30.16,10.0,SSW,15.0,20.7,N/A,,Clear,200,2012-10-10 09:51:00
4:11 AM,32.0,32.0,100,30.16,7.0,SSW,13.8,19.6,N/A,,Clear,210,2012-10-10 10:11:00
4:31 AM,32.0,32.0,100,30.16,10.0,SSW,12.7,19.6,N/A,,Clear,210,2012-10-10 10:31:00
4:51 AM,32.0,32.0,100,30.17,10.0,SW,9.2,-,N/A,,Clear,220,2012-10-10 10:51:00
5:11 AM,32.0,32.0,100,30.17,10.0,SW,11.5,-,N/A,,Clear,220,2012-10-10 11:11:00
5:31 AM,32.0,32.0,100,30.16,10.0,SSW,9.2,-,N/A,,Clear,200,2012-10-10 11:31:00
5:51 AM,32.0,32.0,100,30.16,10.0,SW,10.4,-,N/A,,Clear,220,2012-10-10 11:51:00
6:11 AM,32.0,32.0,100,30.16,10.0,SSW,6.9,-,N/A,,Clear,210,2012-10-10 12:11:00
6:30 AM,32.0,32.0,100,30.17,10.0,SW,5.8,-,N/A,,Clear,220,2012-10-10 12:30:00
6:50 AM,32.0,32.0,100,30.16,10.0,SSW,9.2,-,N/A,,Clear,210,2012-10-10 12:50:00
7:29 AM,32.0,32.0,100,30.16,10.0,SSW,8.1,-,N/A,,Clear,200,2012-10-10 13:29:00
7:51 AM,35.6,32.0,87,30.16,10.0,SSW,6.9,-,N/A,,Clear,200,2012-10-10 13:51:00
8:11 AM,37.4,32.0,81,30.16,10.0,SW,6.9,-,N/A,,Clear,220,2012-10-10 14:11:00
8:26 AM,41.0,32.0,70,30.16,10.0,SSW,9.2,-,N/A,,Clear,210,2012-10-10 14:26:00
8:51 AM,46.4,33.8,62,30.16,10.0,SSW,9.2,-,N/A,,Clear,200,2012-10-10 14:51:00
9:04 AM,46.4,32.0,57,30.17,10.0,SSW,8.1,-,N/A,,Clear,210,2012-10-10 15:04:00
9:28 AM,48.2,32.0,54,30.17,10.0,SW,6.9,-,N/A,,Clear,220,2012-10-10 15:28:00
9:45 AM,55.4,32.0,41,30.16,10.0,SW,11.5,-,N/A,,Clear,230,2012-10-10 15:45:00
10:11 AM,60.8,28.4,29,30.16,10.0,WSW,10.4,-,N/A,,Clear,240,2012-10-10 16:11:00
10:51 AM,64.4,23.0,21,30.15,10.0,WSW,9.2,-,N/A,,Clear,240,2012-10-10 16:51:00
11:11 AM,64.4,23.0,21,30.15,10.0,WSW,8.1,-,N/A,,Clear,250,2012-10-10 17:11:00
11:48 AM,64.4,21.2,19,30.14,10.0,West,12.7,-,N/A,,Clear,280,2012-10-10 17:48:00
12:11 PM,62.6,26.6,26,30.14,10.0,SW,13.8,18.4,N/A,,Clear,230,2012-10-10 18:11:00
12:27 PM,60.8,26.6,27,30.14,10.0,SW,11.5,-,N/A,,Clear,220,2012-10-10 18:27:00
12:46 PM,60.8,26.6,27,30.13,10.0,WSW,11.5,-,N/A,,Clear,240,2012-10-10 18:46:00
1:02 PM,62.6,26.6,26,30.13,10.0,SW,11.5,-,N/A,,Clear,230,2012-10-10 19:02:00
1:31 PM,68.0,24.8,20,30.10,10.0,SW,9.2,-,N/A,,Clear,230,2012-10-10 19:31:00
1:51 PM,68.0,23.0,18,30.09,10.0,Calm,Calm,-,N/A,,Clear,0,2012-10-10 19:51:00
2:11 PM,69.8,23.0,17,30.07,10.0,NNW,3.5,-,N/A,,Clear,330,2012-10-10 20:11:00
2:22 PM,66.2,23.0,19,30.07,10.0,NW,4.6,-,N/A,,Clear,310,2012-10-10 20:22:00
2:48 PM,66.2,23.0,19,30.07,10.0,WSW,3.5,-,N/A,,Clear,240,2012-10-10 20:48:00
3:08 PM,64.4,32.0,30,30.08,10.0,SSE,13.8,-,N/A,,Clear,150,2012-10-10 21:08:00
3:30 PM,66.2,28.4,24,30.07,10.0,SSE,16.1,21.9,N/A,,Scattered Clouds,160,2012-10-10 21:30:00
3:51 PM,62.6,26.6,26,30.07,10.0,SSE,15.0,-,N/A,,Scattered Clouds,160,2012-10-10 21:51:00
4:11 PM,62.6,28.4,27,30.07,10.0,SSE,11.5,-,N/A,,Scattered Clouds,160,2012-10-10 22:11:00
4:30 PM,62.6,32.0,32,30.07,10.0,SSE,12.7,-,N/A,,Scattered Clouds,160,2012-10-10 22:30:00
4:45 PM,60.8,32.0,34,30.07,10.0,SSE,9.2,-,N/A,,Clear,160,2012-10-10 22:45:00
5:11 PM,59.0,33.8,39,30.07,10.0,SSE,12.7,-,N/A,,Clear,160,2012-10-10 23:11:00
5:30 PM,57.2,32.0,38,30.07,10.0,SSE,9.2,-,N/A,,Clear,160,2012-10-10 23:30:00
5:51 PM,53.6,33.8,47,30.07,10.0,South,9.2,-,N/A,,Clear,180,2012-10-10 23:51:00
6:10 PM,51.8,33.8,50,30.08,10.0,South,10.4,-,N/A,,Clear,180,2012-10-11 00:10:00
6:31 PM,50.0,33.8,54,30.08,10.0,SSW,9.2,-,N/A,,Clear,200,2012-10-11 00:31:00
6:48 PM,50.0,33.8,54,30.08,10.0,SSW,9.2,-,N/A,,Clear,200,2012-10-11 00:48:00
7:11 PM,46.4,33.8,62,30.08,10.0,South,12.7,-,N/A,,Clear,190,2012-10-11 01:11:00
7:24 PM,46.4,33.8,62,30.09,10.0,SSW,10.4,-,N/A,,Clear,200,2012-10-11 01:24:00
7:38 PM,44.6,32.0,61,30.09,10.0,SSW,6.9,-,N/A,,Clear,200,2012-10-11 01:38:00
7:57 PM,48.2,32.0,54,30.09,10.0,SW,10.4,-,N/A,,Clear,220,2012-10-11 01:57:00
8:19 PM,48.2,32.0,54,30.09,10.0,SSW,9.2,-,N/A,,Clear,210,2012-10-11 02:19:00
8:43 PM,46.4,32.0,57,30.09,10.0,SSW,9.2,-,N/A,,Clear,210,2012-10-11 02:43:00
8:57 PM,46.4,32.0,57,30.09,10.0,SSW,6.9,-,N/A,,Clear,210,2012-10-11 02:57:00
9:37 PM,46.4,32.0,57,30.10,10.0,SSW,8.1,-,N/A,,Clear,210,2012-10-11 03:37:00
10:04 PM,44.6,32.0,61,30.10,10.0,SSW,6.9,-,N/A,,Clear,200,2012-10-11 04:04:00
10:27 PM,48.2,30.2,50,30.11,10.0,SW,9.2,-,N/A,,Clear,220,2012-10-11 04:27:00
10:36 PM,44.6,30.2,57,30.11,10.0,SW,8.1,-,N/A,,Clear,220,2012-10-11 04:36:00
10:56 PM,44.6,30.2,57,30.11,10.0,SW,6.9,-,N/A,,Clear,230,2012-10-11 04:56:00
11:16 PM,46.4,30.2,53,30.10,10.0,WSW,9.2,-,N/A,,Clear,240,2012-10-11 05:16:00
11:35 PM,46.4,28.4,50,30.10,10.0,WSW,8.1,-,N/A,,Clear,250,2012-10-11 05:35:00
11:56 PM,50.0,28.4,43,30.11,10.0,WSW,9.2,-,N/A,,Clear,240,2012-10-11 05:56:00